sensor_id;sensor_type;location;lat;lon;timestamp;P1;durP1;ratioP1;P2;durP2;ratioP2
70102;SDS011;57470;50.034;15.256;2024-01-30T00:01:12;8.93;;;3.90;;
70102;SDS011;57470;50.034;15.256;2024-01-30T00:03:37;9.90;;;4.17;;
70102;SDS011;57470;50.034;15.256;2024-01-30T00:06:03;4.72;;;2.15;;
70102;SDS011;57470;50.034;15.256;2024-01-30T00:08:29;7.00;;;2.25;;
70102;SDS011;57470;50.034;15.256;2024-01-30T00:10:54;6.97;;;2.63;;
70102;SDS011;57470;50.034;15.256;2024-01-30T00:13:19;10.67;;;3.90;;
70102;SDS011;57470;50.034;15.256;2024-01-30T00:15:45;6.82;;;2.20;;
70102;SDS011;57470;50.034;15.256;2024-01-30T00:18:10;5.80;;;2.67;;
70102;SDS011;57470;50.034;15.256;2024-01-30T00:20:36;14.27;;;3.67;;
70102;SDS011;57470;50.034;15.256;2024-01-30T00:23:01;8.43;;;2.15;;
70102;SDS011;57470;50.034;15.256;2024-01-30T00:25:27;5.32;;;3.30;;
70102;SDS011;57470;50.034;15.256;2024-01-30T00:27:52;5.90;;;2.53;;
70102;SDS011;57470;50.034;15.256;2024-01-30T00:30:17;6.63;;;2.37;;
70102;SDS011;57470;50.034;15.256;2024-01-30T00:32:43;7.40;;;3.30;;
70102;SDS011;57470;50.034;15.256;2024-01-30T00:35:08;4.95;;;2.20;;
70102;SDS011;57470;50.034;15.256;2024-01-30T00:37:35;7.63;;;3.40;;
70102;SDS011;57470;50.034;15.256;2024-01-30T00:40:01;4.82;;;2.22;;
70102;SDS011;57470;50.034;15.256;2024-01-30T00:42:26;8.63;;;3.57;;
70102;SDS011;57470;50.034;15.256;2024-01-30T00:44:51;7.47;;;2.83;;
70102;SDS011;57470;50.034;15.256;2024-01-30T00:47:17;7.47;;;2.50;;
70102;SDS011;57470;50.034;15.256;2024-01-30T00:49:42;4.97;;;2.17;;
70102;SDS011;57470;50.034;15.256;2024-01-30T00:52:08;8.63;;;3.47;;
70102;SDS011;57470;50.034;15.256;2024-01-30T00:54:33;5.25;;;2.25;;
70102;SDS011;57470;50.034;15.256;2024-01-30T00:56:58;9.33;;;3.83;;
70102;SDS011;57470;50.034;15.256;2024-01-30T00:59:24;5.37;;;2.13;;
70102;SDS011;57470;50.034;15.256;2024-01-30T01:01:50;5.00;;;2.10;;
70102;SDS011;57470;50.034;15.256;2024-01-30T01:04:15;5.33;;;1.50;;
70102;SDS011;57470;50.034;15.256;2024-01-30T01:06:41;19.48;;;4.68;;
70102;SDS011;57470;50.034;15.256;2024-01-30T01:09:09;6.73;;;2.40;;
70102;SDS011;57470;50.034;15.256;2024-01-30T01:11:35;8.50;;;2.55;;
70102;SDS011;57470;50.034;15.256;2024-01-30T01:14:01;9.27;;;2.85;;
70102;SDS011;57470;50.034;15.256;2024-01-30T01:16:26;5.88;;;1.92;;
70102;SDS011;57470;50.034;15.256;2024-01-30T01:18:51;7.40;;;2.63;;
70102;SDS011;57470;50.034;15.256;2024-01-30T01:21:17;6.50;;;2.27;;
70102;SDS011;57470;50.034;15.256;2024-01-30T01:23:42;4.97;;;1.98;;
70102;SDS011;57470;50.034;15.256;2024-01-30T01:26:08;4.57;;;1.10;;
70102;SDS011;57470;50.034;15.256;2024-01-30T01:28:34;8.00;;;2.97;;
70102;SDS011;57470;50.034;15.256;2024-01-30T01:31:00;7.50;;;2.70;;
70102;SDS011;57470;50.034;15.256;2024-01-30T01:33:30;4.32;;;1.55;;
70102;SDS011;57470;50.034;15.256;2024-01-30T01:35:58;4.47;;;1.83;;
70102;SDS011;57470;50.034;15.256;2024-01-30T01:38:24;3.87;;;1.77;;
70102;SDS011;57470;50.034;15.256;2024-01-30T01:40:50;4.28;;;1.77;;
70102;SDS011;57470;50.034;15.256;2024-01-30T01:43:16;4.47;;;2.15;;
70102;SDS011;57470;50.034;15.256;2024-01-30T01:45:41;5.22;;;2.50;;
70102;SDS011;57470;50.034;15.256;2024-01-30T01:48:07;7.33;;;3.17;;
70102;SDS011;57470;50.034;15.256;2024-01-30T01:50:34;7.03;;;2.40;;
70102;SDS011;57470;50.034;15.256;2024-01-30T01:53:00;10.73;;;3.22;;
70102;SDS011;57470;50.034;15.256;2024-01-30T01:55:27;7.20;;;2.17;;
70102;SDS011;57470;50.034;15.256;2024-01-30T01:57:54;6.07;;;2.47;;
70102;SDS011;57470;50.034;15.256;2024-01-30T02:00:20;4.75;;;1.98;;
70102;SDS011;57470;50.034;15.256;2024-01-30T02:02:46;7.33;;;3.20;;
70102;SDS011;57470;50.034;15.256;2024-01-30T02:05:12;5.70;;;1.73;;
70102;SDS011;57470;50.034;15.256;2024-01-30T02:07:38;5.38;;;2.17;;
70102;SDS011;57470;50.034;15.256;2024-01-30T02:10:03;6.23;;;2.37;;
70102;SDS011;57470;50.034;15.256;2024-01-30T02:12:29;8.63;;;3.80;;
70102;SDS011;57470;50.034;15.256;2024-01-30T02:14:55;6.73;;;3.90;;
70102;SDS011;57470;50.034;15.256;2024-01-30T02:17:20;4.75;;;2.10;;
70102;SDS011;57470;50.034;15.256;2024-01-30T02:19:48;6.13;;;2.22;;
70102;SDS011;57470;50.034;15.256;2024-01-30T02:22:14;6.23;;;2.37;;
70102;SDS011;57470;50.034;15.256;2024-01-30T02:24:40;5.68;;;3.03;;
70102;SDS011;57470;50.034;15.256;2024-01-30T02:27:07;6.53;;;2.35;;
70102;SDS011;57470;50.034;15.256;2024-01-30T02:29:34;12.57;;;2.67;;
70102;SDS011;57470;50.034;15.256;2024-01-30T02:32:04;4.03;;;1.80;;
70102;SDS011;57470;50.034;15.256;2024-01-30T02:34:31;6.85;;;2.22;;
70102;SDS011;57470;50.034;15.256;2024-01-30T02:36:58;7.55;;;3.15;;
70102;SDS011;57470;50.034;15.256;2024-01-30T02:39:25;3.83;;;1.85;;
70102;SDS011;57470;50.034;15.256;2024-01-30T02:41:51;6.43;;;2.33;;
70102;SDS011;57470;50.034;15.256;2024-01-30T02:44:18;4.13;;;1.65;;
70102;SDS011;57470;50.034;15.256;2024-01-30T02:46:45;4.85;;;2.60;;
70102;SDS011;57470;50.034;15.256;2024-01-30T02:49:12;8.48;;;1.83;;
70102;SDS011;57470;50.034;15.256;2024-01-30T02:51:39;6.45;;;2.55;;
70102;SDS011;57470;50.034;15.256;2024-01-30T02:54:06;5.75;;;2.70;;
70102;SDS011;57470;50.034;15.256;2024-01-30T02:56:33;4.80;;;2.15;;
70102;SDS011;57470;50.034;15.256;2024-01-30T02:59:00;6.40;;;3.08;;
70102;SDS011;57470;50.034;15.256;2024-01-30T03:01:27;7.95;;;2.65;;
70102;SDS011;57470;50.034;15.256;2024-01-30T03:03:54;5.53;;;1.90;;
70102;SDS011;57470;50.034;15.256;2024-01-30T03:06:24;7.45;;;2.13;;
70102;SDS011;57470;50.034;15.256;2024-01-30T03:08:51;5.70;;;2.28;;
70102;SDS011;57470;50.034;15.256;2024-01-30T03:11:18;6.72;;;2.35;;
70102;SDS011;57470;50.034;15.256;2024-01-30T03:13:45;4.40;;;2.13;;
70102;SDS011;57470;50.034;15.256;2024-01-30T03:16:12;3.97;;;1.83;;
70102;SDS011;57470;50.034;15.256;2024-01-30T03:18:38;5.97;;;2.63;;
70102;SDS011;57470;50.034;15.256;2024-01-30T03:21:03;5.68;;;2.08;;
70102;SDS011;57470;50.034;15.256;2024-01-30T03:23:29;8.53;;;3.03;;
70102;SDS011;57470;50.034;15.256;2024-01-30T03:25:54;4.43;;;2.30;;
70102;SDS011;57470;50.034;15.256;2024-01-30T03:28:20;5.85;;;2.53;;
70102;SDS011;57470;50.034;15.256;2024-01-30T03:30:45;8.30;;;1.97;;
70102;SDS011;57470;50.034;15.256;2024-01-30T03:33:11;6.87;;;2.47;;
70102;SDS011;57470;50.034;15.256;2024-01-30T03:35:36;13.53;;;2.23;;
70102;SDS011;57470;50.034;15.256;2024-01-30T03:38:01;6.67;;;2.03;;
70102;SDS011;57470;50.034;15.256;2024-01-30T03:40:27;6.33;;;1.90;;
70102;SDS011;57470;50.034;15.256;2024-01-30T03:42:52;9.27;;;2.43;;
70102;SDS011;57470;50.034;15.256;2024-01-30T03:45:17;5.53;;;2.15;;
70102;SDS011;57470;50.034;15.256;2024-01-30T03:47:44;3.47;;;1.20;;
70102;SDS011;57470;50.034;15.256;2024-01-30T03:50:10;3.85;;;1.58;;
70102;SDS011;57470;50.034;15.256;2024-01-30T03:52:35;4.10;;;1.23;;
70102;SDS011;57470;50.034;15.256;2024-01-30T03:55:00;5.90;;;1.90;;
70102;SDS011;57470;50.034;15.256;2024-01-30T03:57:26;4.77;;;1.97;;
70102;SDS011;57470;50.034;15.256;2024-01-30T03:59:51;5.63;;;1.50;;
70102;SDS011;57470;50.034;15.256;2024-01-30T04:02:17;4.57;;;2.20;;
70102;SDS011;57470;50.034;15.256;2024-01-30T04:04:43;5.05;;;1.85;;
70102;SDS011;57470;50.034;15.256;2024-01-30T04:07:08;6.33;;;3.03;;
70102;SDS011;57470;50.034;15.256;2024-01-30T04:09:33;3.38;;;1.20;;
70102;SDS011;57470;50.034;15.256;2024-01-30T04:11:59;4.07;;;1.90;;
70102;SDS011;57470;50.034;15.256;2024-01-30T04:14:24;4.53;;;2.20;;
70102;SDS011;57470;50.034;15.256;2024-01-30T04:16:50;5.80;;;2.00;;
70102;SDS011;57470;50.034;15.256;2024-01-30T04:19:15;8.97;;;2.27;;
70102;SDS011;57470;50.034;15.256;2024-01-30T04:21:40;6.27;;;1.77;;
70102;SDS011;57470;50.034;15.256;2024-01-30T04:24:06;7.47;;;2.00;;
70102;SDS011;57470;50.034;15.256;2024-01-30T04:26:31;4.43;;;1.23;;
70102;SDS011;57470;50.034;15.256;2024-01-30T04:28:56;4.33;;;1.63;;
70102;SDS011;57470;50.034;15.256;2024-01-30T04:31:22;10.20;;;2.90;;
70102;SDS011;57470;50.034;15.256;2024-01-30T04:33:47;8.80;;;2.00;;
70102;SDS011;57470;50.034;15.256;2024-01-30T04:36:13;6.55;;;2.42;;
70102;SDS011;57470;50.034;15.256;2024-01-30T04:38:38;7.13;;;2.50;;
70102;SDS011;57470;50.034;15.256;2024-01-30T04:41:04;5.80;;;3.30;;
70102;SDS011;57470;50.034;15.256;2024-01-30T04:43:29;6.40;;;2.72;;
70102;SDS011;57470;50.034;15.256;2024-01-30T04:45:55;5.23;;;2.30;;
70102;SDS011;57470;50.034;15.256;2024-01-30T04:48:21;8.35;;;1.95;;
70102;SDS011;57470;50.034;15.256;2024-01-30T04:50:46;5.23;;;1.70;;
70102;SDS011;57470;50.034;15.256;2024-01-30T04:53:12;5.00;;;1.97;;
70102;SDS011;57470;50.034;15.256;2024-01-30T04:55:37;5.30;;;2.53;;
70102;SDS011;57470;50.034;15.256;2024-01-30T04:58:02;8.70;;;3.13;;
70102;SDS011;57470;50.034;15.256;2024-01-30T05:00:28;3.97;;;1.42;;
70102;SDS011;57470;50.034;15.256;2024-01-30T05:02:55;9.20;;;3.42;;
70102;SDS011;57470;50.034;15.256;2024-01-30T05:05:21;6.30;;;2.33;;
70102;SDS011;57470;50.034;15.256;2024-01-30T05:07:46;5.18;;;2.35;;
70102;SDS011;57470;50.034;15.256;2024-01-30T05:10:13;5.80;;;2.33;;
70102;SDS011;57470;50.034;15.256;2024-01-30T05:12:39;6.93;;;2.37;;
70102;SDS011;57470;50.034;15.256;2024-01-30T05:15:04;3.88;;;1.80;;
70102;SDS011;57470;50.034;15.256;2024-01-30T05:17:30;4.95;;;2.03;;
70102;SDS011;57470;50.034;15.256;2024-01-30T05:19:55;6.28;;;3.03;;
70102;SDS011;57470;50.034;15.256;2024-01-30T05:22:21;4.67;;;1.63;;
70102;SDS011;57470;50.034;15.256;2024-01-30T05:24:46;7.97;;;2.23;;
70102;SDS011;57470;50.034;15.256;2024-01-30T05:27:11;4.47;;;2.30;;
70102;SDS011;57470;50.034;15.256;2024-01-30T05:29:38;6.05;;;1.88;;
70102;SDS011;57470;50.034;15.256;2024-01-30T05:32:04;3.67;;;1.20;;
70102;SDS011;57470;50.034;15.256;2024-01-30T05:34:30;4.55;;;2.40;;
70102;SDS011;57470;50.034;15.256;2024-01-30T05:36:56;6.13;;;2.60;;
70102;SDS011;57470;50.034;15.256;2024-01-30T05:39:21;4.57;;;1.75;;
70102;SDS011;57470;50.034;15.256;2024-01-30T05:41:47;3.75;;;1.55;;
70102;SDS011;57470;50.034;15.256;2024-01-30T05:44:12;3.50;;;1.20;;
70102;SDS011;57470;50.034;15.256;2024-01-30T05:46:37;7.37;;;1.97;;
70102;SDS011;57470;50.034;15.256;2024-01-30T05:49:03;5.37;;;2.07;;
70102;SDS011;57470;50.034;15.256;2024-01-30T05:51:28;4.50;;;2.05;;
70102;SDS011;57470;50.034;15.256;2024-01-30T05:53:54;10.53;;;2.60;;
70102;SDS011;57470;50.034;15.256;2024-01-30T05:56:19;4.83;;;1.97;;
70102;SDS011;57470;50.034;15.256;2024-01-30T05:58:45;5.40;;;2.05;;
70102;SDS011;57470;50.034;15.256;2024-01-30T06:01:10;5.20;;;2.43;;
70102;SDS011;57470;50.034;15.256;2024-01-30T06:03:36;4.07;;;1.60;;
70102;SDS011;57470;50.034;15.256;2024-01-30T06:06:02;4.85;;;1.48;;
70102;SDS011;57470;50.034;15.256;2024-01-30T06:08:27;5.00;;;1.80;;
70102;SDS011;57470;50.034;15.256;2024-01-30T06:10:52;7.63;;;2.90;;
70102;SDS011;57470;50.034;15.256;2024-01-30T06:13:18;8.07;;;2.20;;
70102;SDS011;57470;50.034;15.256;2024-01-30T06:15:45;3.72;;;1.65;;
70102;SDS011;57470;50.034;15.256;2024-01-30T06:18:10;6.17;;;2.03;;
70102;SDS011;57470;50.034;15.256;2024-01-30T06:20:35;5.13;;;2.40;;
70102;SDS011;57470;50.034;15.256;2024-01-30T06:23:01;3.05;;;1.10;;
70102;SDS011;57470;50.034;15.256;2024-01-30T06:25:26;5.57;;;0.97;;
70102;SDS011;57470;50.034;15.256;2024-01-30T06:27:52;3.70;;;1.50;;
70102;SDS011;57470;50.034;15.256;2024-01-30T06:30:17;5.73;;;2.13;;
70102;SDS011;57470;50.034;15.256;2024-01-30T06:32:43;8.65;;;2.45;;
70102;SDS011;57470;50.034;15.256;2024-01-30T06:35:09;6.80;;;3.30;;
70102;SDS011;57470;50.034;15.256;2024-01-30T06:37:35;5.05;;;2.40;;
70102;SDS011;57470;50.034;15.256;2024-01-30T06:40:01;8.17;;;2.03;;
70102;SDS011;57470;50.034;15.256;2024-01-30T06:42:26;8.98;;;3.15;;
70102;SDS011;57470;50.034;15.256;2024-01-30T06:44:52;8.17;;;3.20;;
70102;SDS011;57470;50.034;15.256;2024-01-30T06:47:17;6.97;;;2.47;;
70102;SDS011;57470;50.034;15.256;2024-01-30T06:49:42;7.43;;;3.33;;
70102;SDS011;57470;50.034;15.256;2024-01-30T06:52:09;4.97;;;1.48;;
70102;SDS011;57470;50.034;15.256;2024-01-30T06:54:34;7.60;;;2.97;;
70102;SDS011;57470;50.034;15.256;2024-01-30T06:56:59;6.30;;;2.23;;
70102;SDS011;57470;50.034;15.256;2024-01-30T06:59:25;4.85;;;1.63;;
70102;SDS011;57470;50.034;15.256;2024-01-30T07:01:51;4.20;;;1.43;;
70102;SDS011;57470;50.034;15.256;2024-01-30T07:04:16;6.17;;;3.00;;
70102;SDS011;57470;50.034;15.256;2024-01-30T07:06:43;5.22;;;2.03;;
70102;SDS011;57470;50.034;15.256;2024-01-30T07:09:08;6.00;;;2.40;;
70102;SDS011;57470;50.034;15.256;2024-01-30T07:11:34;19.00;;;3.57;;
70102;SDS011;57470;50.034;15.256;2024-01-30T07:13:59;4.80;;;1.98;;
70102;SDS011;57470;50.034;15.256;2024-01-30T07:16:25;4.22;;;1.58;;
70102;SDS011;57470;50.034;15.256;2024-01-30T07:18:50;6.33;;;2.40;;
70102;SDS011;57470;50.034;15.256;2024-01-30T07:21:16;6.30;;;2.17;;
70102;SDS011;57470;50.034;15.256;2024-01-30T07:23:42;4.13;;;1.73;;
70102;SDS011;57470;50.034;15.256;2024-01-30T07:26:08;7.15;;;3.35;;
70102;SDS011;57470;50.034;15.256;2024-01-30T07:28:34;5.50;;;2.35;;
70102;SDS011;57470;50.034;15.256;2024-01-30T07:31:00;8.83;;;2.87;;
70102;SDS011;57470;50.034;15.256;2024-01-30T07:33:26;4.70;;;1.88;;
70102;SDS011;57470;50.034;15.256;2024-01-30T07:35:52;6.90;;;2.77;;
70102;SDS011;57470;50.034;15.256;2024-01-30T07:38:18;3.75;;;1.83;;
70102;SDS011;57470;50.034;15.256;2024-01-30T07:40:43;8.70;;;3.35;;
70102;SDS011;57470;50.034;15.256;2024-01-30T07:43:09;12.57;;;3.80;;
70102;SDS011;57470;50.034;15.256;2024-01-30T07:45:35;6.80;;;3.13;;
70102;SDS011;57470;50.034;15.256;2024-01-30T07:48:00;8.93;;;3.20;;
70102;SDS011;57470;50.034;15.256;2024-01-30T07:50:26;9.60;;;2.90;;
70102;SDS011;57470;50.034;15.256;2024-01-30T07:52:52;6.03;;;3.03;;
70102;SDS011;57470;50.034;15.256;2024-01-30T07:58:26;5.63;;;2.23;;
70102;SDS011;57470;50.034;15.256;2024-01-30T08:00:52;5.85;;;2.38;;
70102;SDS011;57470;50.034;15.256;2024-01-30T08:03:18;7.82;;;2.75;;
70102;SDS011;57470;50.034;15.256;2024-01-30T08:05:44;8.57;;;3.53;;
70102;SDS011;57470;50.034;15.256;2024-01-30T08:08:09;6.65;;;3.25;;
70102;SDS011;57470;50.034;15.256;2024-01-30T08:10:35;5.70;;;3.13;;
70102;SDS011;57470;50.034;15.256;2024-01-30T08:13:01;5.35;;;2.08;;
70102;SDS011;57470;50.034;15.256;2024-01-30T08:15:26;7.37;;;3.17;;
70102;SDS011;57470;50.034;15.256;2024-01-30T08:17:52;10.27;;;3.37;;
70102;SDS011;57470;50.034;15.256;2024-01-30T08:20:22;6.20;;;2.92;;
70102;SDS011;57470;50.034;15.256;2024-01-30T08:22:48;8.13;;;3.65;;
70102;SDS011;57470;50.034;15.256;2024-01-30T08:25:14;9.70;;;3.30;;
70102;SDS011;57470;50.034;15.256;2024-01-30T08:27:39;6.47;;;2.47;;
70102;SDS011;57470;50.034;15.256;2024-01-30T08:30:07;12.57;;;4.53;;
70102;SDS011;57470;50.034;15.256;2024-01-30T08:32:33;10.30;;;3.88;;
70102;SDS011;57470;50.034;15.256;2024-01-30T08:34:59;5.90;;;2.83;;
70102;SDS011;57470;50.034;15.256;2024-01-30T08:37:25;8.27;;;3.23;;
70102;SDS011;57470;50.034;15.256;2024-01-30T08:39:50;7.37;;;3.20;;
70102;SDS011;57470;50.034;15.256;2024-01-30T08:42:15;7.53;;;3.13;;
70102;SDS011;57470;50.034;15.256;2024-01-30T08:44:43;10.85;;;3.80;;
70102;SDS011;57470;50.034;15.256;2024-01-30T08:47:08;8.63;;;1.90;;
70102;SDS011;57470;50.034;15.256;2024-01-30T08:49:34;10.52;;;3.90;;
70102;SDS011;57470;50.034;15.256;2024-01-30T08:51:59;13.40;;;3.80;;
70102;SDS011;57470;50.034;15.256;2024-01-30T08:54:25;10.10;;;4.10;;
70102;SDS011;57470;50.034;15.256;2024-01-30T08:56:50;8.67;;;3.70;;
70102;SDS011;57470;50.034;15.256;2024-01-30T08:59:18;9.52;;;3.45;;
70102;SDS011;57470;50.034;15.256;2024-01-30T09:01:43;6.22;;;4.10;;
70102;SDS011;57470;50.034;15.256;2024-01-30T09:04:09;8.47;;;4.77;;
70102;SDS011;57470;50.034;15.256;2024-01-30T09:06:34;8.07;;;4.23;;
70102;SDS011;57470;50.034;15.256;2024-01-30T09:09:00;7.87;;;3.07;;
70102;SDS011;57470;50.034;15.256;2024-01-30T09:11:26;10.55;;;4.20;;
70102;SDS011;57470;50.034;15.256;2024-01-30T09:13:51;10.30;;;3.87;;
70102;SDS011;57470;50.034;15.256;2024-01-30T09:16:16;9.10;;;3.93;;
70102;SDS011;57470;50.034;15.256;2024-01-30T09:18:42;10.10;;;5.60;;
70102;SDS011;57470;50.034;15.256;2024-01-30T09:21:07;4.82;;;2.13;;
70102;SDS011;57470;50.034;15.256;2024-01-30T09:23:33;13.50;;;4.83;;
70102;SDS011;57470;50.034;15.256;2024-01-30T09:25:58;11.80;;;4.27;;
70102;SDS011;57470;50.034;15.256;2024-01-30T09:28:24;9.95;;;4.65;;
70102;SDS011;57470;50.034;15.256;2024-01-30T09:30:49;11.37;;;4.50;;
70102;SDS011;57470;50.034;15.256;2024-01-30T09:33:15;9.53;;;5.03;;
70102;SDS011;57470;50.034;15.256;2024-01-30T09:35:40;11.80;;;6.33;;
70102;SDS011;57470;50.034;15.256;2024-01-30T09:38:06;8.10;;;4.03;;
70102;SDS011;57470;50.034;15.256;2024-01-30T09:40:31;13.90;;;3.57;;
70102;SDS011;57470;50.034;15.256;2024-01-30T09:42:57;12.33;;;4.97;;
70102;SDS011;57470;50.034;15.256;2024-01-30T09:45:25;10.70;;;4.13;;
70102;SDS011;57470;50.034;15.256;2024-01-30T09:47:51;7.65;;;2.58;;
70102;SDS011;57470;50.034;15.256;2024-01-30T09:50:17;7.60;;;2.70;;
70102;SDS011;57470;50.034;15.256;2024-01-30T09:52:44;13.00;;;5.03;;
70102;SDS011;57470;50.034;15.256;2024-01-30T09:55:10;7.75;;;3.38;;
70102;SDS011;57470;50.034;15.256;2024-01-30T09:57:35;10.85;;;4.93;;
70102;SDS011;57470;50.034;15.256;2024-01-30T10:00:01;12.53;;;5.33;;
70102;SDS011;57470;50.034;15.256;2024-01-30T10:02:29;8.05;;;4.13;;
70102;SDS011;57470;50.034;15.256;2024-01-30T10:04:56;10.38;;;4.50;;
70102;SDS011;57470;50.034;15.256;2024-01-30T10:07:21;12.87;;;3.70;;
70102;SDS011;57470;50.034;15.256;2024-01-30T10:09:48;17.27;;;4.28;;
70102;SDS011;57470;50.034;15.256;2024-01-30T10:12:14;11.57;;;4.27;;
70102;SDS011;57470;50.034;15.256;2024-01-30T10:14:40;18.42;;;8.50;;
70102;SDS011;57470;50.034;15.256;2024-01-30T10:17:07;12.85;;;6.30;;
70102;SDS011;57470;50.034;15.256;2024-01-30T10:19:34;10.32;;;4.38;;
70102;SDS011;57470;50.034;15.256;2024-01-30T10:22:00;12.80;;;4.83;;
70102;SDS011;57470;50.034;15.256;2024-01-30T10:24:26;23.02;;;6.97;;
70102;SDS011;57470;50.034;15.256;2024-01-30T10:26:55;20.15;;;6.78;;
70102;SDS011;57470;50.034;15.256;2024-01-30T10:29:21;17.17;;;7.00;;
70102;SDS011;57470;50.034;15.256;2024-01-30T10:31:57;11.80;;;4.30;;
70102;SDS011;57470;50.034;15.256;2024-01-30T10:34:26;9.80;;;3.92;;
70102;SDS011;57470;50.034;15.256;2024-01-30T10:36:55;13.83;;;5.20;;
70102;SDS011;57470;50.034;15.256;2024-01-30T10:39:24;11.88;;;4.63;;
70102;SDS011;57470;50.034;15.256;2024-01-30T10:41:52;11.95;;;4.22;;
70102;SDS011;57470;50.034;15.256;2024-01-30T10:44:21;8.85;;;3.67;;
70102;SDS011;57470;50.034;15.256;2024-01-30T10:46:50;11.32;;;5.30;;
70102;SDS011;57470;50.034;15.256;2024-01-30T10:49:18;6.37;;;3.20;;
70102;SDS011;57470;50.034;15.256;2024-01-30T10:51:45;10.82;;;3.45;;
70102;SDS011;57470;50.034;15.256;2024-01-30T10:54:12;12.45;;;4.28;;
70102;SDS011;57470;50.034;15.256;2024-01-30T10:56:38;22.52;;;6.50;;
70102;SDS011;57470;50.034;15.256;2024-01-30T10:59:04;12.38;;;5.32;;
70102;SDS011;57470;50.034;15.256;2024-01-30T11:01:30;12.57;;;4.33;;
70102;SDS011;57470;50.034;15.256;2024-01-30T11:03:56;18.77;;;8.77;;
70102;SDS011;57470;50.034;15.256;2024-01-30T11:06:22;16.75;;;6.00;;
70102;SDS011;57470;50.034;15.256;2024-01-30T11:09:01;16.15;;;6.32;;
70102;SDS011;57470;50.034;15.256;2024-01-30T11:11:28;17.90;;;7.93;;
70102;SDS011;57470;50.034;15.256;2024-01-30T11:13:53;23.83;;;10.13;;
70102;SDS011;57470;50.034;15.256;2024-01-30T11:16:19;23.77;;;9.17;;
70102;SDS011;57470;50.034;15.256;2024-01-30T11:18:49;16.90;;;7.03;;
70102;SDS011;57470;50.034;15.256;2024-01-30T11:21:16;31.45;;;11.05;;
70102;SDS011;57470;50.034;15.256;2024-01-30T11:23:41;11.88;;;4.90;;
70102;SDS011;57470;50.034;15.256;2024-01-30T11:26:10;18.60;;;5.47;;
70102;SDS011;57470;50.034;15.256;2024-01-30T11:28:35;16.50;;;5.97;;
70102;SDS011;57470;50.034;15.256;2024-01-30T11:31:06;24.27;;;8.48;;
70102;SDS011;57470;50.034;15.256;2024-01-30T11:33:33;12.40;;;5.15;;
70102;SDS011;57470;50.034;15.256;2024-01-30T11:36:01;19.50;;;4.40;;
70102;SDS011;57470;50.034;15.256;2024-01-30T11:38:27;8.23;;;3.50;;
70102;SDS011;57470;50.034;15.256;2024-01-30T11:40:56;13.90;;;5.05;;
70102;SDS011;57470;50.034;15.256;2024-01-30T11:43:22;10.50;;;5.35;;
70102;SDS011;57470;50.034;15.256;2024-01-30T11:45:48;10.63;;;4.93;;
70102;SDS011;57470;50.034;15.256;2024-01-30T11:48:14;6.88;;;2.72;;
70102;SDS011;57470;50.034;15.256;2024-01-30T11:50:40;17.83;;;6.03;;
70102;SDS011;57470;50.034;15.256;2024-01-30T11:53:06;12.27;;;3.70;;
70102;SDS011;57470;50.034;15.256;2024-01-30T11:55:32;11.88;;;4.70;;
70102;SDS011;57470;50.034;15.256;2024-01-30T11:57:58;8.90;;;3.78;;
70102;SDS011;57470;50.034;15.256;2024-01-30T12:00:23;9.53;;;4.07;;
70102;SDS011;57470;50.034;15.256;2024-01-30T12:02:53;12.40;;;4.97;;
70102;SDS011;57470;50.034;15.256;2024-01-30T12:05:23;10.07;;;3.83;;
70102;SDS011;57470;50.034;15.256;2024-01-30T12:07:49;16.35;;;5.65;;
70102;SDS011;57470;50.034;15.256;2024-01-30T12:10:15;6.20;;;3.50;;
70102;SDS011;57470;50.034;15.256;2024-01-30T12:12:41;10.07;;;4.22;;
70102;SDS011;57470;50.034;15.256;2024-01-30T12:15:10;12.73;;;6.13;;
70102;SDS011;57470;50.034;15.256;2024-01-30T12:17:35;15.68;;;5.80;;
70102;SDS011;57470;50.034;15.256;2024-01-30T12:20:08;10.30;;;5.20;;
70102;SDS011;57470;50.034;15.256;2024-01-30T12:25:05;11.73;;;5.72;;
70102;SDS011;57470;50.034;15.256;2024-01-30T12:27:33;12.65;;;5.47;;
70102;SDS011;57470;50.034;15.256;2024-01-30T12:29:58;11.60;;;6.37;;
70102;SDS011;57470;50.034;15.256;2024-01-30T12:32:24;13.20;;;5.07;;
70102;SDS011;57470;50.034;15.256;2024-01-30T12:34:49;9.87;;;3.37;;
70102;SDS011;57470;50.034;15.256;2024-01-30T12:37:15;12.47;;;5.20;;
70102;SDS011;57470;50.034;15.256;2024-01-30T12:39:45;8.80;;;2.55;;
70102;SDS011;57470;50.034;15.256;2024-01-30T12:42:10;10.93;;;4.13;;
70102;SDS011;57470;50.034;15.256;2024-01-30T12:44:36;9.77;;;4.20;;
70102;SDS011;57470;50.034;15.256;2024-01-30T12:47:04;9.32;;;3.55;;
70102;SDS011;57470;50.034;15.256;2024-01-30T12:49:30;8.30;;;4.05;;
70102;SDS011;57470;50.034;15.256;2024-01-30T12:51:55;14.73;;;5.83;;
70102;SDS011;57470;50.034;15.256;2024-01-30T12:54:22;13.53;;;5.13;;
70102;SDS011;57470;50.034;15.256;2024-01-30T12:56:48;11.52;;;4.53;;
70102;SDS011;57470;50.034;15.256;2024-01-30T12:59:13;9.13;;;3.30;;
70102;SDS011;57470;50.034;15.256;2024-01-30T13:01:39;12.30;;;3.60;;
70102;SDS011;57470;50.034;15.256;2024-01-30T13:04:04;14.93;;;3.87;;
70102;SDS011;57470;50.034;15.256;2024-01-30T13:06:29;17.70;;;7.17;;
70102;SDS011;57470;50.034;15.256;2024-01-30T13:08:55;6.03;;;2.43;;
70102;SDS011;57470;50.034;15.256;2024-01-30T13:11:20;17.10;;;4.20;;
70102;SDS011;57470;50.034;15.256;2024-01-30T13:13:46;17.93;;;7.60;;
70102;SDS011;57470;50.034;15.256;2024-01-30T13:16:11;14.05;;;6.15;;
70102;SDS011;57470;50.034;15.256;2024-01-30T13:18:36;15.30;;;4.60;;
70102;SDS011;57470;50.034;15.256;2024-01-30T13:21:02;11.57;;;5.23;;
70102;SDS011;57470;50.034;15.256;2024-01-30T13:23:27;15.23;;;5.97;;
70102;SDS011;57470;50.034;15.256;2024-01-30T13:25:53;16.07;;;5.30;;
70102;SDS011;57470;50.034;15.256;2024-01-30T13:28:22;11.68;;;5.68;;
70102;SDS011;57470;50.034;15.256;2024-01-30T13:30:48;14.43;;;5.80;;
70102;SDS011;57470;50.034;15.256;2024-01-30T13:33:13;10.97;;;5.07;;
70102;SDS011;57470;50.034;15.256;2024-01-30T13:35:39;12.63;;;3.20;;
70102;SDS011;57470;50.034;15.256;2024-01-30T13:38:04;11.18;;;5.07;;
70102;SDS011;57470;50.034;15.256;2024-01-30T13:40:30;10.80;;;3.70;;
70102;SDS011;57470;50.034;15.256;2024-01-30T13:42:55;8.83;;;3.90;;
70102;SDS011;57470;50.034;15.256;2024-01-30T13:45:20;13.77;;;5.33;;
70102;SDS011;57470;50.034;15.256;2024-01-30T13:47:46;11.50;;;6.07;;
70102;SDS011;57470;50.034;15.256;2024-01-30T13:50:11;11.40;;;5.40;;
70102;SDS011;57470;50.034;15.256;2024-01-30T13:52:40;27.17;;;7.40;;
70102;SDS011;57470;50.034;15.256;2024-01-30T13:55:06;11.88;;;6.53;;
70102;SDS011;57470;50.034;15.256;2024-01-30T13:57:31;10.70;;;4.73;;
70102;SDS011;57470;50.034;15.256;2024-01-30T14:00:00;16.33;;;6.25;;
70102;SDS011;57470;50.034;15.256;2024-01-30T14:02:25;21.20;;;7.43;;
70102;SDS011;57470;50.034;15.256;2024-01-30T14:04:50;14.00;;;4.93;;
70102;SDS011;57470;50.034;15.256;2024-01-30T14:07:16;6.93;;;3.03;;
70102;SDS011;57470;50.034;15.256;2024-01-30T14:09:43;15.52;;;8.02;;
70102;SDS011;57470;50.034;15.256;2024-01-30T14:12:09;12.88;;;5.97;;
70102;SDS011;57470;50.034;15.256;2024-01-30T14:14:34;15.27;;;6.77;;
70102;SDS011;57470;50.034;15.256;2024-01-30T14:17:00;10.97;;;4.40;;
70102;SDS011;57470;50.034;15.256;2024-01-30T14:19:25;15.43;;;5.80;;
70102;SDS011;57470;50.034;15.256;2024-01-30T14:21:51;11.57;;;4.63;;
70102;SDS011;57470;50.034;15.256;2024-01-30T14:24:16;14.57;;;5.70;;
70102;SDS011;57470;50.034;15.256;2024-01-30T14:26:41;6.80;;;3.17;;
70102;SDS011;57470;50.034;15.256;2024-01-30T14:29:07;18.45;;;7.18;;